sensor_id;sensor_type;location;lat;lon;timestamp;P1;durP1;ratioP1;P2;durP2;ratioP2
48925;SDS011;39838;59.938;30.642;2022-07-01T00:00:55;8.40;;;5.13;;
48925;SDS011;39838;59.938;30.642;2022-07-01T00:03:22;12.45;;;5.50;;
48925;SDS011;39838;59.938;30.642;2022-07-01T00:05:49;21.65;;;6.47;;
48925;SDS011;39838;59.938;30.642;2022-07-01T00:08:16;25.40;;;7.38;;
48925;SDS011;39838;59.938;30.642;2022-07-01T00:10:45;16.40;;;6.20;;
48925;SDS011;39838;59.938;30.642;2022-07-01T00:13:12;18.73;;;6.57;;
48925;SDS011;39838;59.938;30.642;2022-07-01T00:15:39;18.25;;;7.75;;
48925;SDS011;39838;59.938;30.642;2022-07-01T00:18:06;21.50;;;8.13;;
48925;SDS011;39838;59.938;30.642;2022-07-01T00:20:33;16.88;;;7.28;;
48925;SDS011;39838;59.938;30.642;2022-07-01T00:23:01;25.02;;;8.02;;
48925;SDS011;39838;59.938;30.642;2022-07-01T00:25:28;21.55;;;7.80;;
48925;SDS011;39838;59.938;30.642;2022-07-01T00:27:56;23.15;;;8.85;;
48925;SDS011;39838;59.938;30.642;2022-07-01T00:30:23;17.52;;;7.35;;
48925;SDS011;39838;59.938;30.642;2022-07-01T00:32:50;21.45;;;9.13;;
48925;SDS011;39838;59.938;30.642;2022-07-01T00:35:19;20.55;;;8.05;;
48925;SDS011;39838;59.938;30.642;2022-07-01T00:37:46;16.30;;;8.45;;
48925;SDS011;39838;59.938;30.642;2022-07-01T00:40:13;16.90;;;7.88;;
48925;SDS011;39838;59.938;30.642;2022-07-01T00:42:40;22.05;;;8.10;;
48925;SDS011;39838;59.938;30.642;2022-07-01T00:45:10;19.73;;;7.55;;
48925;SDS011;39838;59.938;30.642;2022-07-01T00:47:38;12.88;;;6.53;;
48925;SDS011;39838;59.938;30.642;2022-07-01T00:50:07;17.40;;;6.68;;
48925;SDS011;39838;59.938;30.642;2022-07-01T00:52:36;16.17;;;6.32;;
48925;SDS011;39838;59.938;30.642;2022-07-01T00:55:05;18.45;;;5.90;;
48925;SDS011;39838;59.938;30.642;2022-07-01T00:57:34;19.95;;;5.97;;
48925;SDS011;39838;59.938;30.642;2022-07-01T01:00:03;13.85;;;5.90;;
48925;SDS011;39838;59.938;30.642;2022-07-01T01:02:33;12.70;;;5.43;;
48925;SDS011;39838;59.938;30.642;2022-07-01T01:05:01;12.90;;;6.35;;
48925;SDS011;39838;59.938;30.642;2022-07-01T01:07:28;17.23;;;5.93;;
48925;SDS011;39838;59.938;30.642;2022-07-01T01:09:57;13.02;;;5.88;;
48925;SDS011;39838;59.938;30.642;2022-07-01T01:12:25;16.10;;;6.30;;
48925;SDS011;39838;59.938;30.642;2022-07-01T01:14:52;13.77;;;6.00;;
48925;SDS011;39838;59.938;30.642;2022-07-01T01:17:19;23.45;;;6.60;;
48925;SDS011;39838;59.938;30.642;2022-07-01T01:19:49;16.73;;;6.88;;
48925;SDS011;39838;59.938;30.642;2022-07-01T01:22:18;14.95;;;6.85;;
48925;SDS011;39838;59.938;30.642;2022-07-01T01:24:45;18.25;;;6.40;;
48925;SDS011;39838;59.938;30.642;2022-07-01T01:27:13;17.98;;;6.28;;
48925;SDS011;39838;59.938;30.642;2022-07-01T01:29:41;14.05;;;6.25;;
48925;SDS011;39838;59.938;30.642;2022-07-01T01:32:09;15.98;;;6.50;;
48925;SDS011;39838;59.938;30.642;2022-07-01T01:34:37;19.13;;;6.50;;
48925;SDS011;39838;59.938;30.642;2022-07-01T01:37:05;18.48;;;6.95;;
48925;SDS011;39838;59.938;30.642;2022-07-01T01:39:35;14.27;;;6.57;;
48925;SDS011;39838;59.938;30.642;2022-07-01T01:42:03;17.35;;;6.50;;
48925;SDS011;39838;59.938;30.642;2022-07-01T01:44:31;18.42;;;6.43;;
48925;SDS011;39838;59.938;30.642;2022-07-01T01:46:58;15.45;;;6.82;;
48925;SDS011;39838;59.938;30.642;2022-07-01T01:49:25;20.13;;;7.43;;
48925;SDS011;39838;59.938;30.642;2022-07-01T01:51:52;16.52;;;7.25;;
48925;SDS011;39838;59.938;30.642;2022-07-01T01:54:20;18.95;;;6.68;;
48925;SDS011;39838;59.938;30.642;2022-07-01T01:56:48;27.35;;;7.22;;
48925;SDS011;39838;59.938;30.642;2022-07-01T01:59:15;22.30;;;7.50;;
48925;SDS011;39838;59.938;30.642;2022-07-01T02:01:42;24.30;;;7.43;;
48925;SDS011;39838;59.938;30.642;2022-07-01T02:04:09;18.70;;;7.43;;
48925;SDS011;39838;59.938;30.642;2022-07-01T02:06:37;23.65;;;6.90;;
48925;SDS011;39838;59.938;30.642;2022-07-01T02:09:06;21.27;;;7.13;;
48925;SDS011;39838;59.938;30.642;2022-07-01T02:11:34;15.90;;;7.10;;
48925;SDS011;39838;59.938;30.642;2022-07-01T02:14:03;17.88;;;6.80;;
48925;SDS011;39838;59.938;30.642;2022-07-01T02:16:30;22.05;;;7.10;;
48925;SDS011;39838;59.938;30.642;2022-07-01T02:18:57;17.80;;;7.10;;
48925;SDS011;39838;59.938;30.642;2022-07-01T02:21:24;24.38;;;7.05;;
48925;SDS011;39838;59.938;30.642;2022-07-01T02:23:51;19.67;;;7.10;;
48925;SDS011;39838;59.938;30.642;2022-07-01T02:26:18;27.75;;;7.38;;
48925;SDS011;39838;59.938;30.642;2022-07-01T02:28:46;16.50;;;7.03;;
48925;SDS011;39838;59.938;30.642;2022-07-01T02:31:14;18.40;;;7.10;;
48925;SDS011;39838;59.938;30.642;2022-07-01T02:33:41;23.15;;;7.38;;
48925;SDS011;39838;59.938;30.642;2022-07-01T02:36:08;28.27;;;7.78;;
48925;SDS011;39838;59.938;30.642;2022-07-01T02:38:35;22.08;;;6.93;;
48925;SDS011;39838;59.938;30.642;2022-07-01T02:41:02;22.00;;;6.65;;
48925;SDS011;39838;59.938;30.642;2022-07-01T02:43:30;19.02;;;6.55;;
48925;SDS011;39838;59.938;30.642;2022-07-01T02:45:57;27.05;;;6.82;;
48925;SDS011;39838;59.938;30.642;2022-07-01T02:48:25;12.88;;;6.03;;
48925;SDS011;39838;59.938;30.642;2022-07-01T02:50:53;18.33;;;7.70;;
48925;SDS011;39838;59.938;30.642;2022-07-01T02:53:20;17.63;;;6.50;;
48925;SDS011;39838;59.938;30.642;2022-07-01T02:55:47;21.73;;;6.95;;
48925;SDS011;39838;59.938;30.642;2022-07-01T02:58:14;16.88;;;7.25;;
48925;SDS011;39838;59.938;30.642;2022-07-01T03:00:41;21.80;;;7.50;;
48925;SDS011;39838;59.938;30.642;2022-07-01T03:03:08;14.98;;;6.90;;
48925;SDS011;39838;59.938;30.642;2022-07-01T03:05:37;18.30;;;7.07;;
48925;SDS011;39838;59.938;30.642;2022-07-01T03:08:04;17.02;;;6.70;;
48925;SDS011;39838;59.938;30.642;2022-07-01T03:10:31;25.52;;;6.55;;
48925;SDS011;39838;59.938;30.642;2022-07-01T03:12:58;19.33;;;6.22;;
48925;SDS011;39838;59.938;30.642;2022-07-01T03:15:27;14.00;;;6.70;;
48925;SDS011;39838;59.938;30.642;2022-07-01T03:17:54;16.67;;;6.80;;
48925;SDS011;39838;59.938;30.642;2022-07-01T03:20:21;17.80;;;6.93;;
48925;SDS011;39838;59.938;30.642;2022-07-01T03:22:50;14.15;;;6.90;;
48925;SDS011;39838;59.938;30.642;2022-07-01T03:25:17;14.48;;;6.40;;
48925;SDS011;39838;59.938;30.642;2022-07-01T03:27:44;18.80;;;6.97;;
48925;SDS011;39838;59.938;30.642;2022-07-01T03:30:13;18.15;;;6.90;;
48925;SDS011;39838;59.938;30.642;2022-07-01T03:32:40;13.18;;;6.57;;
48925;SDS011;39838;59.938;30.642;2022-07-01T03:35:08;13.70;;;6.97;;
48925;SDS011;39838;59.938;30.642;2022-07-01T03:40:22;14.95;;;7.82;;
48925;SDS011;39838;59.938;30.642;2022-07-01T03:42:49;17.13;;;7.47;;
48925;SDS011;39838;59.938;30.642;2022-07-01T03:45:17;18.08;;;7.90;;
48925;SDS011;39838;59.938;30.642;2022-07-01T03:47:47;14.73;;;7.43;;
48925;SDS011;39838;59.938;30.642;2022-07-01T03:50:15;21.40;;;7.90;;
48925;SDS011;39838;59.938;30.642;2022-07-01T03:52:43;17.00;;;7.82;;
48925;SDS011;39838;59.938;30.642;2022-07-01T03:55:11;18.08;;;7.40;;
48925;SDS011;39838;59.938;30.642;2022-07-01T03:57:38;15.52;;;7.50;;
48925;SDS011;39838;59.938;30.642;2022-07-01T04:00:06;18.33;;;7.85;;
48925;SDS011;39838;59.938;30.642;2022-07-01T04:02:34;14.43;;;7.20;;
48925;SDS011;39838;59.938;30.642;2022-07-01T04:05:01;13.77;;;6.80;;
48925;SDS011;39838;59.938;30.642;2022-07-01T04:07:28;10.77;;;6.60;;
48925;SDS011;39838;59.938;30.642;2022-07-01T04:09:55;12.88;;;6.00;;
48925;SDS011;39838;59.938;30.642;2022-07-01T04:12:24;10.10;;;5.30;;
48925;SDS011;39838;59.938;30.642;2022-07-01T04:14:51;16.15;;;5.63;;
48925;SDS011;39838;59.938;30.642;2022-07-01T04:17:18;9.02;;;4.95;;
48925;SDS011;39838;59.938;30.642;2022-07-01T04:19:45;9.40;;;4.78;;
48925;SDS011;39838;59.938;30.642;2022-07-01T04:22:13;11.07;;;4.72;;
48925;SDS011;39838;59.938;30.642;2022-07-01T04:24:57;8.57;;;4.28;;
48925;SDS011;39838;59.938;30.642;2022-07-01T04:27:26;10.32;;;4.35;;
48925;SDS011;39838;59.938;30.642;2022-07-01T04:29:53;11.23;;;5.03;;
48925;SDS011;39838;59.938;30.642;2022-07-01T04:32:20;10.20;;;4.60;;
48925;SDS011;39838;59.938;30.642;2022-07-01T04:34:47;10.10;;;5.15;;
48925;SDS011;39838;59.938;30.642;2022-07-01T04:37:14;12.18;;;6.00;;
48925;SDS011;39838;59.938;30.642;2022-07-01T04:39:41;12.60;;;5.57;;
48925;SDS011;39838;59.938;30.642;2022-07-01T04:42:08;13.18;;;5.53;;
48925;SDS011;39838;59.938;30.642;2022-07-01T04:44:36;13.98;;;5.53;;
48925;SDS011;39838;59.938;30.642;2022-07-01T04:47:04;12.15;;;5.20;;
48925;SDS011;39838;59.938;30.642;2022-07-01T04:49:31;10.48;;;4.40;;
48925;SDS011;39838;59.938;30.642;2022-07-01T04:51:58;7.53;;;3.97;;
48925;SDS011;39838;59.938;30.642;2022-07-01T04:54:26;10.35;;;4.80;;
48925;SDS011;39838;59.938;30.642;2022-07-01T04:56:53;8.25;;;4.55;;
48925;SDS011;39838;59.938;30.642;2022-07-01T04:59:21;11.85;;;4.32;;
48925;SDS011;39838;59.938;30.642;2022-07-01T05:01:49;13.02;;;4.20;;
48925;SDS011;39838;59.938;30.642;2022-07-01T05:04:17;6.80;;;3.90;;
48925;SDS011;39838;59.938;30.642;2022-07-01T05:06:45;8.55;;;4.38;;
48925;SDS011;39838;59.938;30.642;2022-07-01T05:09:13;10.85;;;4.60;;
48925;SDS011;39838;59.938;30.642;2022-07-01T05:11:40;11.40;;;4.88;;
48925;SDS011;39838;59.938;30.642;2022-07-01T05:14:07;10.00;;;4.47;;
48925;SDS011;39838;59.938;30.642;2022-07-01T05:16:35;11.40;;;4.30;;
48925;SDS011;39838;59.938;30.642;2022-07-01T05:19:03;8.35;;;4.18;;
48925;SDS011;39838;59.938;30.642;2022-07-01T05:21:48;6.70;;;3.83;;
48925;SDS011;39838;59.938;30.642;2022-07-01T05:24:26;12.30;;;3.83;;
48925;SDS011;39838;59.938;30.642;2022-07-01T05:26:55;8.77;;;4.07;;
48925;SDS011;39838;59.938;30.642;2022-07-01T05:29:23;8.48;;;4.25;;
48925;SDS011;39838;59.938;30.642;2022-07-01T05:31:50;10.07;;;4.70;;
48925;SDS011;39838;59.938;30.642;2022-07-01T05:34:19;12.05;;;4.93;;
48925;SDS011;39838;59.938;30.642;2022-07-01T05:36:46;11.35;;;4.75;;
48925;SDS011;39838;59.938;30.642;2022-07-01T05:39:13;12.13;;;4.30;;
48925;SDS011;39838;59.938;30.642;2022-07-01T05:41:40;12.98;;;4.50;;
48925;SDS011;39838;59.938;30.642;2022-07-01T05:44:07;9.63;;;4.50;;
48925;SDS011;39838;59.938;30.642;2022-07-01T05:46:34;9.80;;;4.60;;
48925;SDS011;39838;59.938;30.642;2022-07-01T05:49:01;8.75;;;4.25;;
48925;SDS011;39838;59.938;30.642;2022-07-01T05:51:30;11.20;;;4.50;;
48925;SDS011;39838;59.938;30.642;2022-07-01T05:53:57;12.25;;;4.20;;
48925;SDS011;39838;59.938;30.642;2022-07-01T05:56:25;12.05;;;4.30;;
48925;SDS011;39838;59.938;30.642;2022-07-01T05:58:52;7.65;;;4.22;;
48925;SDS011;39838;59.938;30.642;2022-07-01T06:01:19;9.00;;;4.57;;
48925;SDS011;39838;59.938;30.642;2022-07-01T06:03:46;12.63;;;4.30;;
48925;SDS011;39838;59.938;30.642;2022-07-01T06:06:13;8.63;;;3.97;;
48925;SDS011;39838;59.938;30.642;2022-07-01T06:08:42;6.90;;;4.10;;
48925;SDS011;39838;59.938;30.642;2022-07-01T06:11:09;9.50;;;4.10;;
48925;SDS011;39838;59.938;30.642;2022-07-01T06:13:36;13.40;;;4.57;;
48925;SDS011;39838;59.938;30.642;2022-07-01T06:16:03;15.68;;;4.50;;
48925;SDS011;39838;59.938;30.642;2022-07-01T06:18:30;10.52;;;4.43;;
48925;SDS011;39838;59.938;30.642;2022-07-01T06:20:58;13.88;;;4.15;;
48925;SDS011;39838;59.938;30.642;2022-07-01T06:23:25;18.70;;;4.65;;
48925;SDS011;39838;59.938;30.642;2022-07-01T06:25:53;11.32;;;4.30;;
48925;SDS011;39838;59.938;30.642;2022-07-01T06:28:20;12.18;;;4.13;;
48925;SDS011;39838;59.938;30.642;2022-07-01T06:30:48;10.50;;;4.03;;
48925;SDS011;39838;59.938;30.642;2022-07-01T06:33:15;11.57;;;3.88;;
48925;SDS011;39838;59.938;30.642;2022-07-01T06:35:42;6.57;;;3.67;;
48925;SDS011;39838;59.938;30.642;2022-07-01T06:38:09;14.10;;;4.00;;
48925;SDS011;39838;59.938;30.642;2022-07-01T06:40:36;7.85;;;3.60;;
48925;SDS011;39838;59.938;30.642;2022-07-01T06:43:04;6.88;;;4.13;;
48925;SDS011;39838;59.938;30.642;2022-07-01T06:45:32;8.32;;;3.80;;
48925;SDS011;39838;59.938;30.642;2022-07-01T06:47:59;6.45;;;3.88;;
48925;SDS011;39838;59.938;30.642;2022-07-01T06:50:28;9.80;;;4.00;;
48925;SDS011;39838;59.938;30.642;2022-07-01T06:52:55;12.85;;;4.10;;
48925;SDS011;39838;59.938;30.642;2022-07-01T06:55:22;11.30;;;4.50;;
48925;SDS011;39838;59.938;30.642;2022-07-01T06:57:49;10.02;;;3.70;;
48925;SDS011;39838;59.938;30.642;2022-07-01T07:00:18;12.35;;;4.03;;
48925;SDS011;39838;59.938;30.642;2022-07-01T07:02:46;6.32;;;3.38;;
48925;SDS011;39838;59.938;30.642;2022-07-01T07:05:13;8.73;;;3.92;;
48925;SDS011;39838;59.938;30.642;2022-07-01T07:07:40;8.77;;;4.07;;
48925;SDS011;39838;59.938;30.642;2022-07-01T07:10:07;10.50;;;4.07;;
48925;SDS011;39838;59.938;30.642;2022-07-01T07:12:35;8.73;;;3.78;;
48925;SDS011;39838;59.938;30.642;2022-07-01T07:15:02;5.22;;;3.95;;
48925;SDS011;39838;59.938;30.642;2022-07-01T07:17:31;8.88;;;4.13;;
48925;SDS011;39838;59.938;30.642;2022-07-01T07:19:58;10.40;;;4.40;;
48925;SDS011;39838;59.938;30.642;2022-07-01T07:22:25;6.28;;;4.20;;
48925;SDS011;39838;59.938;30.642;2022-07-01T07:24:52;10.45;;;4.35;;
48925;SDS011;39838;59.938;30.642;2022-07-01T07:27:19;7.78;;;4.78;;
48925;SDS011;39838;59.938;30.642;2022-07-01T07:29:46;7.45;;;4.70;;
48925;SDS011;39838;59.938;30.642;2022-07-01T07:32:13;7.63;;;4.53;;
48925;SDS011;39838;59.938;30.642;2022-07-01T07:34:42;6.97;;;4.40;;
48925;SDS011;39838;59.938;30.642;2022-07-01T07:37:09;16.45;;;4.60;;
48925;SDS011;39838;59.938;30.642;2022-07-01T07:39:36;10.95;;;4.20;;
48925;SDS011;39838;59.938;30.642;2022-07-01T07:42:04;9.27;;;4.30;;
48925;SDS011;39838;59.938;30.642;2022-07-01T07:44:31;9.20;;;4.72;;
48925;SDS011;39838;59.938;30.642;2022-07-01T07:46:58;8.18;;;4.63;;
48925;SDS011;39838;59.938;30.642;2022-07-01T07:49:26;10.98;;;4.63;;
48925;SDS011;39838;59.938;30.642;2022-07-01T07:51:54;9.55;;;4.90;;
48925;SDS011;39838;59.938;30.642;2022-07-01T07:54:22;8.35;;;5.18;;
48925;SDS011;39838;59.938;30.642;2022-07-01T07:56:49;10.25;;;4.72;;
48925;SDS011;39838;59.938;30.642;2022-07-01T07:59:16;9.85;;;5.30;;
48925;SDS011;39838;59.938;30.642;2022-07-01T08:01:43;9.40;;;5.05;;
48925;SDS011;39838;59.938;30.642;2022-07-01T08:04:11;11.27;;;5.53;;
48925;SDS011;39838;59.938;30.642;2022-07-01T08:06:38;10.00;;;4.75;;
48925;SDS011;39838;59.938;30.642;2022-07-01T08:09:06;10.93;;;5.20;;
48925;SDS011;39838;59.938;30.642;2022-07-01T08:11:34;10.23;;;5.45;;
48925;SDS011;39838;59.938;30.642;2022-07-01T08:14:01;6.70;;;4.78;;
48925;SDS011;39838;59.938;30.642;2022-07-01T08:16:28;6.70;;;5.00;;
48925;SDS011;39838;59.938;30.642;2022-07-01T08:18:55;7.13;;;5.20;;
48925;SDS011;39838;59.938;30.642;2022-07-01T08:21:22;12.75;;;5.45;;
48925;SDS011;39838;59.938;30.642;2022-07-01T08:23:50;8.85;;;4.95;;
48925;SDS011;39838;59.938;30.642;2022-07-01T08:26:18;5.72;;;4.75;;
48925;SDS011;39838;59.938;30.642;2022-07-01T08:28:45;6.38;;;5.45;;
48925;SDS011;39838;59.938;30.642;2022-07-01T08:31:13;10.70;;;5.50;;
48925;SDS011;39838;59.938;30.642;2022-07-01T08:33:40;8.07;;;5.45;;
48925;SDS011;39838;59.938;30.642;2022-07-01T08:36:08;9.75;;;5.10;;
48925;SDS011;39838;59.938;30.642;2022-07-01T08:38:36;11.02;;;5.05;;
48925;SDS011;39838;59.938;30.642;2022-07-01T08:41:03;12.88;;;5.70;;
48925;SDS011;39838;59.938;30.642;2022-07-01T08:43:32;8.10;;;5.40;;
48925;SDS011;39838;59.938;30.642;2022-07-01T08:46:01;6.30;;;5.10;;
48925;SDS011;39838;59.938;30.642;2022-07-01T08:48:28;8.18;;;5.30;;
48925;SDS011;39838;59.938;30.642;2022-07-01T08:50:56;7.18;;;5.53;;
48925;SDS011;39838;59.938;30.642;2022-07-01T08:53:23;7.78;;;5.30;;
48925;SDS011;39838;59.938;30.642;2022-07-01T08:55:50;11.23;;;5.85;;
48925;SDS011;39838;59.938;30.642;2022-07-01T09:01:12;11.52;;;7.95;;
48925;SDS011;39838;59.938;30.642;2022-07-01T09:03:41;11.10;;;7.43;;
48925;SDS011;39838;59.938;30.642;2022-07-01T09:06:13;11.02;;;6.57;;
48925;SDS011;39838;59.938;30.642;2022-07-01T09:08:41;9.07;;;6.65;;
48925;SDS011;39838;59.938;30.642;2022-07-01T09:11:12;9.35;;;6.90;;
48925;SDS011;39838;59.938;30.642;2022-07-01T09:13:42;7.55;;;5.55;;
48925;SDS011;39838;59.938;30.642;2022-07-01T09:16:11;8.10;;;5.88;;
48925;SDS011;39838;59.938;30.642;2022-07-01T09:18:39;11.20;;;5.82;;
48925;SDS011;39838;59.938;30.642;2022-07-01T09:21:07;7.10;;;5.50;;
48925;SDS011;39838;59.938;30.642;2022-07-01T09:23:35;9.88;;;5.20;;
48925;SDS011;39838;59.938;30.642;2022-07-01T09:26:02;8.20;;;5.65;;
48925;SDS011;39838;59.938;30.642;2022-07-01T09:28:29;7.03;;;5.28;;
48925;SDS011;39838;59.938;30.642;2022-07-01T09:30:58;9.65;;;5.10;;
48925;SDS011;39838;59.938;30.642;2022-07-01T09:33:26;7.80;;;5.05;;
48925;SDS011;39838;59.938;30.642;2022-07-01T09:35:54;8.23;;;4.70;;
48925;SDS011;39838;59.938;30.642;2022-07-01T09:38:25;6.93;;;4.55;;
48925;SDS011;39838;59.938;30.642;2022-07-01T09:40:53;8.45;;;5.00;;
48925;SDS011;39838;59.938;30.642;2022-07-01T09:43:22;10.20;;;4.85;;
48925;SDS011;39838;59.938;30.642;2022-07-01T09:45:55;6.47;;;5.18;;
48925;SDS011;39838;59.938;30.642;2022-07-01T09:48:25;8.77;;;5.07;;
48925;SDS011;39838;59.938;30.642;2022-07-01T09:51:08;8.43;;;5.00;;
48925;SDS011;39838;59.938;30.642;2022-07-01T09:53:36;11.98;;;5.15;;
48925;SDS011;39838;59.938;30.642;2022-07-01T09:56:03;7.88;;;5.13;;
48925;SDS011;39838;59.938;30.642;2022-07-01T09:58:31;10.68;;;5.00;;
48925;SDS011;39838;59.938;30.642;2022-07-01T10:00:58;8.07;;;4.97;;
48925;SDS011;39838;59.938;30.642;2022-07-01T10:03:28;6.18;;;5.03;;
48925;SDS011;39838;59.938;30.642;2022-07-01T10:08:55;8.77;;;5.53;;
48925;SDS011;39838;59.938;30.642;2022-07-01T10:11:42;5.60;;;4.93;;
48925;SDS011;39838;59.938;30.642;2022-07-01T10:14:23;6.05;;;5.07;;
48925;SDS011;39838;59.938;30.642;2022-07-01T10:16:51;7.72;;;5.40;;
48925;SDS011;39838;59.938;30.642;2022-07-01T10:19:25;10.30;;;5.40;;
48925;SDS011;39838;59.938;30.642;2022-07-01T10:21:54;5.82;;;5.10;;
48925;SDS011;39838;59.938;30.642;2022-07-01T10:24:24;8.40;;;5.20;;
48925;SDS011;39838;59.938;30.642;2022-07-01T10:26:52;7.43;;;5.28;;
48925;SDS011;39838;59.938;30.642;2022-07-01T10:29:28;7.57;;;5.20;;
48925;SDS011;39838;59.938;30.642;2022-07-01T10:32:00;7.95;;;5.47;;
48925;SDS011;39838;59.938;30.642;2022-07-01T10:34:36;7.47;;;5.57;;
48925;SDS011;39838;59.938;30.642;2022-07-01T10:37:05;7.85;;;5.55;;
48925;SDS011;39838;59.938;30.642;2022-07-01T10:42:30;9.85;;;5.55;;
48925;SDS011;39838;59.938;30.642;2022-07-01T10:45:02;9.60;;;5.85;;
48925;SDS011;39838;59.938;30.642;2022-07-01T10:47:31;6.82;;;5.68;;
48925;SDS011;39838;59.938;30.642;2022-07-01T10:50:10;8.48;;;5.85;;
48925;SDS011;39838;59.938;30.642;2022-07-01T10:52:40;10.10;;;6.07;;
48925;SDS011;39838;59.938;30.642;2022-07-01T10:55:35;7.88;;;5.93;;
48925;SDS011;39838;59.938;30.642;2022-07-01T10:58:03;8.30;;;5.97;;
48925;SDS011;39838;59.938;30.642;2022-07-01T11:00:31;7.07;;;5.47;;
48925;SDS011;39838;59.938;30.642;2022-07-01T11:03:07;6.47;;;5.07;;
48925;SDS011;39838;59.938;30.642;2022-07-01T11:05:38;9.02;;;5.63;;
48925;SDS011;39838;59.938;30.642;2022-07-01T11:08:06;5.90;;;5.30;;
48925;SDS011;39838;59.938;30.642;2022-07-01T11:10:34;6.80;;;5.00;;
48925;SDS011;39838;59.938;30.642;2022-07-01T11:13:01;6.47;;;5.15;;
48925;SDS011;39838;59.938;30.642;2022-07-01T11:15:29;9.32;;;5.10;;
48925;SDS011;39838;59.938;30.642;2022-07-01T11:17:57;7.57;;;5.45;;
48925;SDS011;39838;59.938;30.642;2022-07-01T11:20:26;6.13;;;5.53;;
48925;SDS011;39838;59.938;30.642;2022-07-01T11:22:57;9.93;;;5.68;;
48925;SDS011;39838;59.938;30.642;2022-07-01T11:25:25;6.10;;;5.50;;
48925;SDS011;39838;59.938;30.642;2022-07-01T11:27:52;8.20;;;5.60;;
48925;SDS011;39838;59.938;30.642;2022-07-01T11:30:20;7.32;;;5.20;;
48925;SDS011;39838;59.938;30.642;2022-07-01T11:32:49;6.75;;;5.57;;
48925;SDS011;39838;59.938;30.642;2022-07-01T11:35:18;9.02;;;5.40;;
48925;SDS011;39838;59.938;30.642;2022-07-01T11:38:06;6.38;;;5.18;;
48925;SDS011;39838;59.938;30.642;2022-07-01T11:40:52;5.85;;;4.88;;
48925;SDS011;39838;59.938;30.642;2022-07-01T11:43:20;7.97;;;5.57;;
48925;SDS011;39838;59.938;30.642;2022-07-01T11:45:48;6.80;;;5.32;;
48925;SDS011;39838;59.938;30.642;2022-07-01T11:48:28;6.80;;;5.30;;
48925;SDS011;39838;59.938;30.642;2022-07-01T11:53:32;5.55;;;4.82;;
48925;SDS011;39838;59.938;30.642;2022-07-01T11:56:00;6.18;;;5.25;;
48925;SDS011;39838;59.938;30.642;2022-07-01T11:58:39;15.48;;;5.28;;
48925;SDS011;39838;59.938;30.642;2022-07-01T12:01:08;6.93;;;5.20;;
48925;SDS011;39838;59.938;30.642;2022-07-01T12:03:36;6.40;;;5.13;;
48925;SDS011;39838;59.938;30.642;2022-07-01T12:06:03;10.80;;;5.00;;
48925;SDS011;39838;59.938;30.642;2022-07-01T12:08:32;6.28;;;5.00;;
48925;SDS011;39838;59.938;30.642;2022-07-01T12:11:00;7.38;;;5.28;;
48925;SDS011;39838;59.938;30.642;2022-07-01T12:13:27;12.35;;;5.15;;
48925;SDS011;39838;59.938;30.642;2022-07-01T12:15:59;12.18;;;4.72;;
48925;SDS011;39838;59.938;30.642;2022-07-01T12:18:32;7.70;;;4.90;;
48925;SDS011;39838;59.938;30.642;2022-07-01T12:21:00;5.95;;;4.55;;
48925;SDS011;39838;59.938;30.642;2022-07-01T12:23:28;8.32;;;4.80;;
48925;SDS011;39838;59.938;30.642;2022-07-01T12:25:57;5.43;;;4.25;;
48925;SDS011;39838;59.938;30.642;2022-07-01T12:28:31;5.22;;;4.30;;
48925;SDS011;39838;59.938;30.642;2022-07-01T12:31:00;7.35;;;4.30;;
48925;SDS011;39838;59.938;30.642;2022-07-01T12:33:28;7.03;;;4.47;;
48925;SDS011;39838;59.938;30.642;2022-07-01T12:35:55;8.55;;;4.40;;
48925;SDS011;39838;59.938;30.642;2022-07-01T12:38:22;5.82;;;4.15;;
48925;SDS011;39838;59.938;30.642;2022-07-01T12:40:49;9.10;;;4.65;;
48925;SDS011;39838;59.938;30.642;2022-07-01T12:43:25;8.23;;;4.00;;
48925;SDS011;39838;59.938;30.642;2022-07-01T12:45:55;5.97;;;3.90;;
48925;SDS011;39838;59.938;30.642;2022-07-01T12:48:23;8.85;;;4.25;;
48925;SDS011;39838;59.938;30.642;2022-07-01T12:50:54;4.93;;;3.97;;
48925;SDS011;39838;59.938;30.642;2022-07-01T12:53:23;6.30;;;4.15;;
48925;SDS011;39838;59.938;30.642;2022-07-01T12:55:51;5.97;;;3.78;;
48925;SDS011;39838;59.938;30.642;2022-07-01T12:58:21;11.10;;;3.67;;
48925;SDS011;39838;59.938;30.642;2022-07-01T13:00:51;5.05;;;3.65;;
48925;SDS011;39838;59.938;30.642;2022-07-01T13:03:20;7.50;;;3.80;;
48925;SDS011;39838;59.938;30.642;2022-07-01T13:05:48;7.90;;;3.85;;
48925;SDS011;39838;59.938;30.642;2022-07-01T13:08:16;8.35;;;3.75;;
48925;SDS011;39838;59.938;30.642;2022-07-01T13:10:44;10.95;;;4.13;;
48925;SDS011;39838;59.938;30.642;2022-07-01T13:13:12;5.47;;;3.50;;
48925;SDS011;39838;59.938;30.642;2022-07-01T13:15:40;7.38;;;3.50;;
48925;SDS011;39838;59.938;30.642;2022-07-01T13:18:08;4.95;;;3.58;;
48925;SDS011;39838;59.938;30.642;2022-07-01T13:20:35;4.93;;;3.60;;
48925;SDS011;39838;59.938;30.642;2022-07-01T13:23:04;6.45;;;3.63;;
48925;SDS011;39838;59.938;30.642;2022-07-01T13:25:31;5.32;;;3.20;;
48925;SDS011;39838;59.938;30.642;2022-07-01T13:27:58;7.78;;;3.75;;
48925;SDS011;39838;59.938;30.642;2022-07-01T13:30:25;7.65;;;3.30;;
48925;SDS011;39838;59.938;30.642;2022-07-01T13:32:52;7.03;;;3.25;;
48925;SDS011;39838;59.938;30.642;2022-07-01T13:35:22;6.95;;;3.90;;
48925;SDS011;39838;59.938;30.642;2022-07-01T13:37:49;7.75;;;3.67;;
48925;SDS011;39838;59.938;30.642;2022-07-01T13:40:17;10.25;;;3.72;;
48925;SDS011;39838;59.938;30.642;2022-07-01T13:42:47;10.20;;;4.10;;
48925;SDS011;39838;59.938;30.642;2022-07-01T13:45:14;6.63;;;3.70;;
48925;SDS011;39838;59.938;30.642;2022-07-01T13:47:41;3.58;;;3.00;;
48925;SDS011;39838;59.938;30.642;2022-07-01T13:50:08;4.75;;;3.60;;
48925;SDS011;39838;59.938;30.642;2022-07-01T13:52:39;9.15;;;3.45;;
48925;SDS011;39838;59.938;30.642;2022-07-01T13:55:06;7.60;;;3.33;;
48925;SDS011;39838;59.938;30.642;2022-07-01T13:57:34;8.40;;;3.63;;
48925;SDS011;39838;59.938;30.642;2022-07-01T14:00:01;4.68;;;3.20;;
48925;SDS011;39838;59.938;30.642;2022-07-01T14:02:28;7.03;;;3.08;;
48925;SDS011;39838;59.938;30.642;2022-07-01T14:04:57;7.40;;;3.17;;
48925;SDS011;39838;59.938;30.642;2022-07-01T14:07:24;7.95;;;3.20;;
48925;SDS011;39838;59.938;30.642;2022-07-01T14:09:53;12.85;;;3.35;;
48925;SDS011;39838;59.938;30.642;2022-07-01T14:12:20;6.32;;;3.20;;
48925;SDS011;39838;59.938;30.642;2022-07-01T14:14:47;6.03;;;3.05;;
48925;SDS011;39838;59.938;30.642;2022-07-01T14:17:14;7.30;;;3.25;;
48925;SDS011;39838;59.938;30.642;2022-07-01T14:19:41;6.82;;;3.20;;
48925;SDS011;39838;59.938;30.642;2022-07-01T14:22:09;6.55;;;3.03;;
48925;SDS011;39838;59.938;30.642;2022-07-01T14:24:36;8.27;;;3.33;;
48925;SDS011;39838;59.938;30.642;2022-07-01T14:27:05;6.25;;;3.25;;
48925;SDS011;39838;59.938;30.642;2022-07-01T14:29:32;8.93;;;3.15;;
48925;SDS011;39838;59.938;30.642;2022-07-01T14:31:59;4.97;;;2.72;;
48925;SDS011;39838;59.938;30.642;2022-07-01T14:34:26;5.80;;;2.97;;
48925;SDS011;39838;59.938;30.642;2022-07-01T14:36:54;6.85;;;3.10;;
48925;SDS011;39838;59.938;30.642;2022-07-01T14:39:21;4.53;;;3.03;;
48925;SDS011;39838;59.938;30.642;2022-07-01T14:41:48;5.50;;;2.83;;
48925;SDS011;39838;59.938;30.642;2022-07-01T14:44:17;5.57;;;3.20;;
48925;SDS011;39838;59.938;30.642;2022-07-01T14:46:44;6.63;;;3.40;;
48925;SDS011;39838;59.938;30.642;2022-07-01T14:49:12;5.75;;;2.95;;